Main page
METAR-TAF:

METAR-TAF

Airports :

Morón Air Base

Morón de la Frontera, Spain

latitude: 37-09N, longitude: 005-37W, elevation: 87 m

Current weather observation

The report was made 32 minutes ago, at 06:00 UTC
Wind 1 kt from variable directions
Temperature 12°C
Humidity 94%
Pressure 1017 hPa
Visibility 10 km or more
no clouds below 1500 m and no cumulonimbus

METAR: LEMO 170600Z VRB01KT CAVOK 12/11 Q1017 NOSIG

Time: 08:32 (06:32 UTC)

Forecast

The report was made 1 hour and 32 minutes ago, at 05:00 UTC
Forecast valid from 17 at 06 UTC to 17 at 15 UTC
Wind 4 kt from the East
Visibility 10 km or more
no clouds below 1500 m and no cumulonimbus
Probability 30% :
Temporary
from 17 at 06 UTC to 17 at 09 UTC
Visibility: 3000 m
Broken clouds at a height of 1000 ft
mist

TAF: LEMO 170500Z 1706/1715 08004KT CAVOK PROB30 TEMPO 1706/1709 3000 BR BKN010

Weather observations and forecasts of more than 4000 airports (METAR and TAF reports).

The available stations are represented by yellow and red dots on the map.

Hover mouse over dot to see the name of the station.

Then click to see weather observations and forecasts.

To change the map : click on the green buttons with a black cross to zoom in, on the green button with a dash to zoom out, or on the green arrows for adjacent maps.


METAR-TAF: